sensor_id;sensor_type;location;lat;lon;timestamp;P1;durP1;ratioP1;P2;durP2;ratioP2
3417;SDS011;68007;51.312;12.372;2023-06-24T00:00:57;42.77;;;11.97;;
3417;SDS011;68007;51.312;12.372;2023-06-24T00:03:24;20.10;;;11.50;;
3417;SDS011;68007;51.312;12.372;2023-06-24T00:05:52;27.07;;;11.90;;
3417;SDS011;68007;51.312;12.372;2023-06-24T00:08:24;23.57;;;11.33;;
3417;SDS011;68007;51.312;12.372;2023-06-24T00:11:00;23.40;;;12.03;;
3417;SDS011;68007;51.312;12.372;2023-06-24T00:13:28;24.67;;;10.70;;
3417;SDS011;68007;51.312;12.372;2023-06-24T00:15:55;19.80;;;11.53;;
3417;SDS011;68007;51.312;12.372;2023-06-24T00:18:23;23.00;;;11.50;;
3417;SDS011;68007;51.312;12.372;2023-06-24T00:20:55;17.80;;;10.63;;
3417;SDS011;68007;51.312;12.372;2023-06-24T00:23:24;23.03;;;11.30;;
3417;SDS011;68007;51.312;12.372;2023-06-24T00:25:51;19.17;;;11.87;;
3417;SDS011;68007;51.312;12.372;2023-06-24T00:28:20;23.20;;;11.40;;
3417;SDS011;68007;51.312;12.372;2023-06-24T00:30:47;20.83;;;11.40;;
3417;SDS011;68007;51.312;12.372;2023-06-24T00:33:15;25.20;;;11.90;;
3417;SDS011;68007;51.312;12.372;2023-06-24T00:35:45;19.70;;;11.37;;
3417;SDS011;68007;51.312;12.372;2023-06-24T00:38:13;36.00;;;11.80;;
3417;SDS011;68007;51.312;12.372;2023-06-24T00:40:41;33.67;;;11.33;;
3417;SDS011;68007;51.312;12.372;2023-06-24T00:43:09;14.97;;;10.20;;
3417;SDS011;68007;51.312;12.372;2023-06-24T00:45:37;27.03;;;10.57;;
3417;SDS011;68007;51.312;12.372;2023-06-24T00:48:05;34.83;;;10.93;;
3417;SDS011;68007;51.312;12.372;2023-06-24T00:50:32;20.70;;;10.47;;
3417;SDS011;68007;51.312;12.372;2023-06-24T00:53:01;14.80;;;9.63;;
3417;SDS011;68007;51.312;12.372;2023-06-24T00:55:29;24.03;;;10.07;;
3417;SDS011;68007;51.312;12.372;2023-06-24T00:57:58;14.93;;;9.47;;
3417;SDS011;68007;51.312;12.372;2023-06-24T01:00:27;19.10;;;10.47;;
3417;SDS011;68007;51.312;12.372;2023-06-24T01:02:54;20.30;;;10.20;;
3417;SDS011;68007;51.312;12.372;2023-06-24T01:05:23;26.33;;;9.67;;
3417;SDS011;68007;51.312;12.372;2023-06-24T01:07:52;23.77;;;9.90;;
3417;SDS011;68007;51.312;12.372;2023-06-24T01:10:22;13.77;;;9.27;;
3417;SDS011;68007;51.312;12.372;2023-06-24T01:12:50;19.10;;;8.90;;
3417;SDS011;68007;51.312;12.372;2023-06-24T01:15:19;20.23;;;8.87;;
3417;SDS011;68007;51.312;12.372;2023-06-24T01:17:49;22.63;;;8.40;;
3417;SDS011;68007;51.312;12.372;2023-06-24T01:20:23;20.73;;;8.60;;
3417;SDS011;68007;51.312;12.372;2023-06-24T01:23:04;17.30;;;9.60;;
3417;SDS011;68007;51.312;12.372;2023-06-24T01:25:44;19.13;;;8.47;;
3417;SDS011;68007;51.312;12.372;2023-06-24T01:28:30;19.67;;;10.70;;
3417;SDS011;68007;51.312;12.372;2023-06-24T01:31:26;19.23;;;8.13;;
3417;SDS011;68007;51.312;12.372;2023-06-24T01:34:01;23.07;;;10.67;;
3417;SDS011;68007;51.312;12.372;2023-06-24T01:36:33;23.13;;;11.50;;
3417;SDS011;68007;51.312;12.372;2023-06-24T01:39:05;17.73;;;9.50;;
3417;SDS011;68007;51.312;12.372;2023-06-24T01:41:41;18.87;;;10.07;;
3417;SDS011;68007;51.312;12.372;2023-06-24T01:44:13;21.53;;;10.10;;
3417;SDS011;68007;51.312;12.372;2023-06-24T01:46:44;17.00;;;9.30;;
3417;SDS011;68007;51.312;12.372;2023-06-24T01:49:15;19.43;;;9.70;;
3417;SDS011;68007;51.312;12.372;2023-06-24T01:51:45;20.80;;;9.90;;
3417;SDS011;68007;51.312;12.372;2023-06-24T01:54:14;21.30;;;10.67;;
3417;SDS011;68007;51.312;12.372;2023-06-24T01:56:44;21.80;;;9.20;;
3417;SDS011;68007;51.312;12.372;2023-06-24T01:59:15;15.47;;;10.63;;
3417;SDS011;68007;51.312;12.372;2023-06-24T02:01:45;22.63;;;10.10;;
3417;SDS011;68007;51.312;12.372;2023-06-24T02:04:13;17.53;;;9.67;;
3417;SDS011;68007;51.312;12.372;2023-06-24T02:06:42;15.83;;;9.40;;
3417;SDS011;68007;51.312;12.372;2023-06-24T02:09:13;27.27;;;11.03;;
3417;SDS011;68007;51.312;12.372;2023-06-24T02:11:44;20.67;;;10.10;;
3417;SDS011;68007;51.312;12.372;2023-06-24T02:14:13;12.37;;;9.70;;
3417;SDS011;68007;51.312;12.372;2023-06-24T02:16:42;20.80;;;11.10;;
3417;SDS011;68007;51.312;12.372;2023-06-24T02:19:13;13.23;;;10.33;;
3417;SDS011;68007;51.312;12.372;2023-06-24T02:21:46;15.47;;;9.67;;
3417;SDS011;68007;51.312;12.372;2023-06-24T02:24:17;20.97;;;9.73;;
3417;SDS011;68007;51.312;12.372;2023-06-24T02:26:46;15.30;;;10.43;;
3417;SDS011;68007;51.312;12.372;2023-06-24T02:29:14;21.63;;;9.93;;
3417;SDS011;68007;51.312;12.372;2023-06-24T02:31:42;16.20;;;11.23;;
3417;SDS011;68007;51.312;12.372;2023-06-24T02:34:11;22.53;;;10.10;;
3417;SDS011;68007;51.312;12.372;2023-06-24T02:36:39;27.03;;;9.93;;
3417;SDS011;68007;51.312;12.372;2023-06-24T02:39:07;18.30;;;10.97;;
3417;SDS011;68007;51.312;12.372;2023-06-24T02:41:34;11.50;;;9.80;;
3417;SDS011;68007;51.312;12.372;2023-06-24T02:44:02;13.40;;;10.87;;
3417;SDS011;68007;51.312;12.372;2023-06-24T02:46:30;18.63;;;10.07;;
3417;SDS011;68007;51.312;12.372;2023-06-24T02:49:01;15.93;;;11.30;;
3417;SDS011;68007;51.312;12.372;2023-06-24T02:51:31;20.40;;;10.43;;
3417;SDS011;68007;51.312;12.372;2023-06-24T02:53:59;17.97;;;10.97;;
3417;SDS011;68007;51.312;12.372;2023-06-24T02:56:28;22.77;;;10.70;;
3417;SDS011;68007;51.312;12.372;2023-06-24T02:58:56;21.00;;;11.23;;
3417;SDS011;68007;51.312;12.372;2023-06-24T03:01:24;16.80;;;10.43;;
3417;SDS011;68007;51.312;12.372;2023-06-24T03:03:53;25.57;;;10.50;;
3417;SDS011;68007;51.312;12.372;2023-06-24T03:06:21;14.37;;;10.00;;
3417;SDS011;68007;51.312;12.372;2023-06-24T03:08:51;12.33;;;9.83;;
3417;SDS011;68007;51.312;12.372;2023-06-24T03:11:19;15.10;;;10.40;;
3417;SDS011;68007;51.312;12.372;2023-06-24T03:13:46;16.60;;;10.20;;
3417;SDS011;68007;51.312;12.372;2023-06-24T03:16:14;17.73;;;11.17;;
3417;SDS011;68007;51.312;12.372;2023-06-24T03:18:41;21.67;;;10.70;;
3417;SDS011;68007;51.312;12.372;2023-06-24T03:21:09;16.03;;;10.57;;
3417;SDS011;68007;51.312;12.372;2023-06-24T03:23:37;17.97;;;10.77;;
3417;SDS011;68007;51.312;12.372;2023-06-24T03:26:07;12.03;;;10.00;;
3417;SDS011;68007;51.312;12.372;2023-06-24T03:28:34;17.63;;;9.60;;
3417;SDS011;68007;51.312;12.372;2023-06-24T03:31:04;23.93;;;10.97;;
3417;SDS011;68007;51.312;12.372;2023-06-24T03:33:31;26.37;;;12.23;;
3417;SDS011;68007;51.312;12.372;2023-06-24T03:35:59;14.90;;;9.60;;
3417;SDS011;68007;51.312;12.372;2023-06-24T03:38:26;18.83;;;10.53;;
3417;SDS011;68007;51.312;12.372;2023-06-24T03:40:54;19.60;;;11.23;;
3417;SDS011;68007;51.312;12.372;2023-06-24T03:43:23;13.53;;;9.23;;
3417;SDS011;68007;51.312;12.372;2023-06-24T03:45:51;15.73;;;10.93;;
3417;SDS011;68007;51.312;12.372;2023-06-24T03:48:18;16.77;;;9.97;;
3417;SDS011;68007;51.312;12.372;2023-06-24T03:50:46;21.60;;;10.03;;
3417;SDS011;68007;51.312;12.372;2023-06-24T03:53:13;16.90;;;9.30;;
3417;SDS011;68007;51.312;12.372;2023-06-24T03:55:41;15.93;;;8.87;;
3417;SDS011;68007;51.312;12.372;2023-06-24T03:58:08;16.73;;;9.33;;
3417;SDS011;68007;51.312;12.372;2023-06-24T04:00:37;14.57;;;9.70;;
3417;SDS011;68007;51.312;12.372;2023-06-24T04:03:06;14.83;;;9.67;;
3417;SDS011;68007;51.312;12.372;2023-06-24T04:05:33;17.07;;;10.03;;
3417;SDS011;68007;51.312;12.372;2023-06-24T04:08:01;19.30;;;9.50;;
3417;SDS011;68007;51.312;12.372;2023-06-24T04:10:31;14.53;;;9.97;;
3417;SDS011;68007;51.312;12.372;2023-06-24T04:12:59;20.50;;;9.10;;
3417;SDS011;68007;51.312;12.372;2023-06-24T04:15:26;17.70;;;10.47;;
3417;SDS011;68007;51.312;12.372;2023-06-24T04:17:55;18.23;;;10.23;;
3417;SDS011;68007;51.312;12.372;2023-06-24T04:20:22;15.77;;;9.43;;
3417;SDS011;68007;51.312;12.372;2023-06-24T04:22:50;18.27;;;9.30;;
3417;SDS011;68007;51.312;12.372;2023-06-24T04:25:17;17.60;;;9.70;;
3417;SDS011;68007;51.312;12.372;2023-06-24T04:27:45;17.70;;;9.20;;
3417;SDS011;68007;51.312;12.372;2023-06-24T04:30:13;21.20;;;9.33;;
3417;SDS011;68007;51.312;12.372;2023-06-24T04:32:40;13.53;;;9.30;;
3417;SDS011;68007;51.312;12.372;2023-06-24T04:35:09;12.23;;;9.27;;
3417;SDS011;68007;51.312;12.372;2023-06-24T04:37:36;18.13;;;10.07;;
3417;SDS011;68007;51.312;12.372;2023-06-24T04:40:04;13.90;;;9.67;;
3417;SDS011;68007;51.312;12.372;2023-06-24T04:42:33;17.20;;;9.27;;
3417;SDS011;68007;51.312;12.372;2023-06-24T04:45:00;13.50;;;9.17;;
3417;SDS011;68007;51.312;12.372;2023-06-24T04:47:31;13.70;;;9.40;;
3417;SDS011;68007;51.312;12.372;2023-06-24T04:49:58;14.17;;;8.77;;
3417;SDS011;68007;51.312;12.372;2023-06-24T04:52:27;25.70;;;10.40;;
3417;SDS011;68007;51.312;12.372;2023-06-24T04:54:55;15.77;;;10.50;;
3417;SDS011;68007;51.312;12.372;2023-06-24T04:57:23;19.33;;;10.20;;
3417;SDS011;68007;51.312;12.372;2023-06-24T04:59:51;21.50;;;9.57;;
3417;SDS011;68007;51.312;12.372;2023-06-24T05:02:19;15.97;;;9.50;;
3417;SDS011;68007;51.312;12.372;2023-06-24T05:04:46;14.23;;;9.40;;
3417;SDS011;68007;51.312;12.372;2023-06-24T05:07:14;20.33;;;9.30;;
3417;SDS011;68007;51.312;12.372;2023-06-24T05:09:45;15.33;;;10.70;;
3417;SDS011;68007;51.312;12.372;2023-06-24T05:12:13;15.47;;;9.17;;
3417;SDS011;68007;51.312;12.372;2023-06-24T05:14:40;17.10;;;10.17;;
3417;SDS011;68007;51.312;12.372;2023-06-24T05:17:08;15.93;;;10.07;;
3417;SDS011;68007;51.312;12.372;2023-06-24T05:19:35;21.30;;;9.80;;
3417;SDS011;68007;51.312;12.372;2023-06-24T05:22:03;19.80;;;10.67;;
3417;SDS011;68007;51.312;12.372;2023-06-24T05:24:30;16.57;;;11.03;;
3417;SDS011;68007;51.312;12.372;2023-06-24T05:27:03;20.67;;;10.90;;
3417;SDS011;68007;51.312;12.372;2023-06-24T05:29:32;15.43;;;9.83;;
3417;SDS011;68007;51.312;12.372;2023-06-24T05:31:59;14.47;;;9.43;;
3417;SDS011;68007;51.312;12.372;2023-06-24T05:34:29;19.57;;;10.33;;
3417;SDS011;68007;51.312;12.372;2023-06-24T05:36:57;17.27;;;10.13;;
3417;SDS011;68007;51.312;12.372;2023-06-24T05:39:24;19.70;;;9.80;;
3417;SDS011;68007;51.312;12.372;2023-06-24T05:41:52;19.30;;;9.60;;
3417;SDS011;68007;51.312;12.372;2023-06-24T05:44:21;15.57;;;9.17;;
3417;SDS011;68007;51.312;12.372;2023-06-24T05:46:48;15.43;;;10.87;;
3417;SDS011;68007;51.312;12.372;2023-06-24T05:49:16;15.73;;;9.80;;
3417;SDS011;68007;51.312;12.372;2023-06-24T05:51:44;19.50;;;10.67;;
3417;SDS011;68007;51.312;12.372;2023-06-24T05:54:12;18.23;;;9.10;;
3417;SDS011;68007;51.312;12.372;2023-06-24T05:56:39;17.60;;;10.33;;
3417;SDS011;68007;51.312;12.372;2023-06-24T05:59:07;17.10;;;10.00;;
3417;SDS011;68007;51.312;12.372;2023-06-24T06:01:36;10.50;;;8.70;;
3417;SDS011;68007;51.312;12.372;2023-06-24T06:04:03;14.93;;;9.50;;
3417;SDS011;68007;51.312;12.372;2023-06-24T06:06:31;23.67;;;11.00;;
3417;SDS011;68007;51.312;12.372;2023-06-24T06:08:58;13.47;;;9.30;;
3417;SDS011;68007;51.312;12.372;2023-06-24T06:11:26;16.23;;;10.03;;
3417;SDS011;68007;51.312;12.372;2023-06-24T06:13:54;17.83;;;10.97;;
3417;SDS011;68007;51.312;12.372;2023-06-24T06:16:21;17.03;;;10.20;;
3417;SDS011;68007;51.312;12.372;2023-06-24T06:18:50;13.20;;;10.70;;
3417;SDS011;68007;51.312;12.372;2023-06-24T06:21:18;14.63;;;10.20;;
3417;SDS011;68007;51.312;12.372;2023-06-24T06:23:45;16.87;;;10.30;;
3417;SDS011;68007;51.312;12.372;2023-06-24T06:26:13;15.30;;;10.67;;
3417;SDS011;68007;51.312;12.372;2023-06-24T06:28:40;20.50;;;9.80;;
3417;SDS011;68007;51.312;12.372;2023-06-24T06:31:08;18.63;;;11.40;;
3417;SDS011;68007;51.312;12.372;2023-06-24T06:33:36;15.70;;;11.13;;
3417;SDS011;68007;51.312;12.372;2023-06-24T06:36:05;13.47;;;10.53;;
3417;SDS011;68007;51.312;12.372;2023-06-24T06:38:33;11.67;;;9.60;;
3417;SDS011;68007;51.312;12.372;2023-06-24T06:41:00;17.60;;;11.70;;
3417;SDS011;68007;51.312;12.372;2023-06-24T06:43:28;14.23;;;9.13;;
3417;SDS011;68007;51.312;12.372;2023-06-24T06:45:55;19.53;;;11.57;;
3417;SDS011;68007;51.312;12.372;2023-06-24T06:48:23;17.40;;;10.83;;
3417;SDS011;68007;51.312;12.372;2023-06-24T06:50:50;14.60;;;10.90;;
3417;SDS011;68007;51.312;12.372;2023-06-24T06:53:20;17.70;;;11.07;;
3417;SDS011;68007;51.312;12.372;2023-06-24T06:55:47;15.73;;;10.97;;
3417;SDS011;68007;51.312;12.372;2023-06-24T06:58:15;16.00;;;11.00;;
3417;SDS011;68007;51.312;12.372;2023-06-24T07:00:42;18.33;;;11.83;;
3417;SDS011;68007;51.312;12.372;2023-06-24T07:03:10;21.70;;;12.20;;
3417;SDS011;68007;51.312;12.372;2023-06-24T07:05:37;11.83;;;10.33;;
3417;SDS011;68007;51.312;12.372;2023-06-24T07:08:05;18.57;;;12.33;;
3417;SDS011;68007;51.312;12.372;2023-06-24T07:10:34;15.00;;;11.03;;
3417;SDS011;68007;51.312;12.372;2023-06-24T07:13:01;15.93;;;12.27;;
3417;SDS011;68007;51.312;12.372;2023-06-24T07:15:29;14.73;;;11.17;;
3417;SDS011;68007;51.312;12.372;2023-06-24T07:17:57;17.93;;;11.57;;
3417;SDS011;68007;51.312;12.372;2023-06-24T07:20:24;16.60;;;10.90;;
3417;SDS011;68007;51.312;12.372;2023-06-24T07:22:52;16.30;;;11.10;;
3417;SDS011;68007;51.312;12.372;2023-06-24T07:25:19;15.30;;;10.37;;
3417;SDS011;68007;51.312;12.372;2023-06-24T07:27:48;12.57;;;9.67;;
3417;SDS011;68007;51.312;12.372;2023-06-24T07:30:15;11.93;;;10.10;;
3417;SDS011;68007;51.312;12.372;2023-06-24T07:32:43;14.43;;;11.40;;
3417;SDS011;68007;51.312;12.372;2023-06-24T07:35:10;10.50;;;8.90;;
3417;SDS011;68007;51.312;12.372;2023-06-24T07:37:39;16.10;;;9.73;;
3417;SDS011;68007;51.312;12.372;2023-06-24T07:40:07;11.80;;;10.57;;
3417;SDS011;68007;51.312;12.372;2023-06-24T07:42:35;15.23;;;9.93;;
3417;SDS011;68007;51.312;12.372;2023-06-24T07:45:04;14.17;;;9.43;;
3417;SDS011;68007;51.312;12.372;2023-06-24T07:47:32;15.10;;;8.90;;
3417;SDS011;68007;51.312;12.372;2023-06-24T07:50:00;11.67;;;9.23;;
3417;SDS011;68007;51.312;12.372;2023-06-24T07:52:27;14.57;;;10.07;;
3417;SDS011;68007;51.312;12.372;2023-06-24T07:54:55;14.00;;;10.13;;
3417;SDS011;68007;51.312;12.372;2023-06-24T07:57:22;17.50;;;9.33;;
3417;SDS011;68007;51.312;12.372;2023-06-24T07:59:50;19.50;;;9.20;;
3417;SDS011;68007;51.312;12.372;2023-06-24T08:02:19;16.83;;;10.53;;
3417;SDS011;68007;51.312;12.372;2023-06-24T08:04:46;12.50;;;9.23;;
3417;SDS011;68007;51.312;12.372;2023-06-24T08:07:14;13.13;;;9.73;;
3417;SDS011;68007;51.312;12.372;2023-06-24T08:09:42;11.07;;;8.40;;
3417;SDS011;68007;51.312;12.372;2023-06-24T08:12:09;10.43;;;8.20;;
3417;SDS011;68007;51.312;12.372;2023-06-24T08:14:37;12.70;;;9.17;;
3417;SDS011;68007;51.312;12.372;2023-06-24T08:17:05;15.63;;;8.97;;
3417;SDS011;68007;51.312;12.372;2023-06-24T08:19:33;17.13;;;9.63;;
3417;SDS011;68007;51.312;12.372;2023-06-24T08:22:01;20.00;;;9.80;;
3417;SDS011;68007;51.312;12.372;2023-06-24T08:24:29;13.80;;;9.60;;
3417;SDS011;68007;51.312;12.372;2023-06-24T08:26:56;11.50;;;8.40;;
3417;SDS011;68007;51.312;12.372;2023-06-24T08:29:24;14.50;;;8.10;;
3417;SDS011;68007;51.312;12.372;2023-06-24T08:31:51;11.90;;;7.57;;
3417;SDS011;68007;51.312;12.372;2023-06-24T08:34:19;8.60;;;7.30;;
3417;SDS011;68007;51.312;12.372;2023-06-24T08:36:48;11.93;;;7.20;;
3417;SDS011;68007;51.312;12.372;2023-06-24T08:39:15;8.63;;;6.40;;
3417;SDS011;68007;51.312;12.372;2023-06-24T08:41:43;8.80;;;7.50;;
3417;SDS011;68007;51.312;12.372;2023-06-24T08:44:10;9.00;;;7.17;;
3417;SDS011;68007;51.312;12.372;2023-06-24T08:46:38;6.60;;;5.97;;
3417;SDS011;68007;51.312;12.372;2023-06-24T08:49:08;12.50;;;7.70;;
3417;SDS011;68007;51.312;12.372;2023-06-24T08:51:43;18.03;;;7.50;;
3417;SDS011;68007;51.312;12.372;2023-06-24T08:54:15;8.93;;;6.53;;
3417;SDS011;68007;51.312;12.372;2023-06-24T08:56:43;7.97;;;6.33;;
3417;SDS011;68007;51.312;12.372;2023-06-24T08:59:10;10.13;;;6.83;;
3417;SDS011;68007;51.312;12.372;2023-06-24T09:01:38;9.47;;;6.70;;
3417;SDS011;68007;51.312;12.372;2023-06-24T09:04:05;10.30;;;5.90;;
3417;SDS011;68007;51.312;12.372;2023-06-24T09:06:33;9.03;;;6.47;;
3417;SDS011;68007;51.312;12.372;2023-06-24T09:09:00;8.30;;;5.80;;
3417;SDS011;68007;51.312;12.372;2023-06-24T09:11:29;8.40;;;6.53;;
3417;SDS011;68007;51.312;12.372;2023-06-24T09:13:58;11.27;;;7.13;;
3417;SDS011;68007;51.312;12.372;2023-06-24T09:16:26;9.50;;;7.00;;
3417;SDS011;68007;51.312;12.372;2023-06-24T09:18:55;6.77;;;6.13;;
3417;SDS011;68007;51.312;12.372;2023-06-24T09:21:23;13.30;;;6.97;;
3417;SDS011;68007;51.312;12.372;2023-06-24T09:23:52;10.60;;;6.80;;
3417;SDS011;68007;51.312;12.372;2023-06-24T09:26:22;10.83;;;6.80;;
3417;SDS011;68007;51.312;12.372;2023-06-24T09:28:52;9.87;;;6.00;;
3417;SDS011;68007;51.312;12.372;2023-06-24T09:31:20;7.63;;;5.53;;
3417;SDS011;68007;51.312;12.372;2023-06-24T09:33:49;6.10;;;5.50;;
3417;SDS011;68007;51.312;12.372;2023-06-24T09:36:16;8.17;;;6.30;;
3417;SDS011;68007;51.312;12.372;2023-06-24T09:38:44;12.60;;;6.50;;
3417;SDS011;68007;51.312;12.372;2023-06-24T09:41:11;10.60;;;6.80;;
3417;SDS011;68007;51.312;12.372;2023-06-24T09:43:41;11.50;;;6.30;;
3417;SDS011;68007;51.312;12.372;2023-06-24T09:46:11;7.80;;;6.30;;
3417;SDS011;68007;51.312;12.372;2023-06-24T09:48:41;8.97;;;6.33;;
3417;SDS011;68007;51.312;12.372;2023-06-24T09:51:09;6.73;;;5.30;;
3417;SDS011;68007;51.312;12.372;2023-06-24T09:53:40;7.20;;;5.43;;
3417;SDS011;68007;51.312;12.372;2023-06-24T09:56:09;6.83;;;5.57;;
3417;SDS011;68007;51.312;12.372;2023-06-24T09:58:39;7.37;;;5.63;;
3417;SDS011;68007;51.312;12.372;2023-06-24T10:01:09;6.70;;;5.60;;
3417;SDS011;68007;51.312;12.372;2023-06-24T10:03:39;7.77;;;5.87;;
3417;SDS011;68007;51.312;12.372;2023-06-24T10:06:07;6.80;;;5.90;;
3417;SDS011;68007;51.312;12.372;2023-06-24T10:08:35;10.60;;;6.90;;
3417;SDS011;68007;51.312;12.372;2023-06-24T10:11:03;12.90;;;5.90;;
3417;SDS011;68007;51.312;12.372;2023-06-24T10:13:31;11.90;;;6.40;;
3417;SDS011;68007;51.312;12.372;2023-06-24T10:15:58;8.30;;;6.40;;
3417;SDS011;68007;51.312;12.372;2023-06-24T10:18:33;8.93;;;5.67;;
3417;SDS011;68007;51.312;12.372;2023-06-24T10:21:02;15.60;;;5.40;;
3417;SDS011;68007;51.312;12.372;2023-06-24T10:23:31;8.77;;;5.20;;
3417;SDS011;68007;51.312;12.372;2023-06-24T10:26:07;8.57;;;5.30;;
3417;SDS011;68007;51.312;12.372;2023-06-24T10:31:55;6.93;;;4.70;;
3417;SDS011;68007;51.312;12.372;2023-06-24T10:34:28;7.07;;;5.47;;
3417;SDS011;68007;51.312;12.372;2023-06-24T10:36:59;8.20;;;5.20;;
3417;SDS011;68007;51.312;12.372;2023-06-24T10:39:35;7.33;;;5.03;;
3417;SDS011;68007;51.312;12.372;2023-06-24T10:45:00;5.30;;;4.80;;
3417;SDS011;68007;51.312;12.372;2023-06-24T10:47:36;10.73;;;5.10;;
3417;SDS011;68007;51.312;12.372;2023-06-24T10:50:07;8.20;;;5.33;;
3417;SDS011;68007;51.312;12.372;2023-06-24T10:52:37;9.23;;;5.23;;
3417;SDS011;68007;51.312;12.372;2023-06-24T10:55:05;6.80;;;4.97;;
3417;SDS011;68007;51.312;12.372;2023-06-24T10:57:34;6.47;;;4.33;;
3417;SDS011;68007;51.312;12.372;2023-06-24T11:00:02;6.80;;;5.40;;
3417;SDS011;68007;51.312;12.372;2023-06-24T11:02:30;7.23;;;4.63;;
3417;SDS011;68007;51.312;12.372;2023-06-24T11:04:59;8.50;;;5.23;;
3417;SDS011;68007;51.312;12.372;2023-06-24T11:07:29;5.13;;;4.63;;
3417;SDS011;68007;51.312;12.372;2023-06-24T11:09:58;6.50;;;4.30;;
3417;SDS011;68007;51.312;12.372;2023-06-24T11:12:30;8.53;;;4.80;;
3417;SDS011;68007;51.312;12.372;2023-06-24T11:14:59;6.57;;;4.10;;
3417;SDS011;68007;51.312;12.372;2023-06-24T11:17:28;4.10;;;3.70;;
3417;SDS011;68007;51.312;12.372;2023-06-24T11:19:57;6.17;;;4.40;;
3417;SDS011;68007;51.312;12.372;2023-06-24T11:22:25;5.10;;;4.60;;
3417;SDS011;68007;51.312;12.372;2023-06-24T11:24:55;9.20;;;5.10;;
3417;SDS011;68007;51.312;12.372;2023-06-24T11:27:26;7.23;;;4.37;;
3417;SDS011;68007;51.312;12.372;2023-06-24T11:29:54;8.20;;;4.10;;
3417;SDS011;68007;51.312;12.372;2023-06-24T11:32:24;7.57;;;4.27;;
3417;SDS011;68007;51.312;12.372;2023-06-24T11:34:51;8.23;;;5.00;;
3417;SDS011;68007;51.312;12.372;2023-06-24T11:37:19;6.50;;;4.70;;
3417;SDS011;68007;51.312;12.372;2023-06-24T11:39:59;5.40;;;4.13;;
3417;SDS011;68007;51.312;12.372;2023-06-24T11:42:30;7.10;;;4.60;;
3417;SDS011;68007;51.312;12.372;2023-06-24T11:45:01;5.03;;;4.53;;
3417;SDS011;68007;51.312;12.372;2023-06-24T11:47:31;8.30;;;4.80;;
3417;SDS011;68007;51.312;12.372;2023-06-24T11:50:00;6.63;;;4.00;;
3417;SDS011;68007;51.312;12.372;2023-06-24T11:52:32;5.93;;;4.50;;
3417;SDS011;68007;51.312;12.372;2023-06-24T11:55:10;5.43;;;4.10;;
3417;SDS011;68007;51.312;12.372;2023-06-24T11:57:51;7.90;;;3.97;;
3417;SDS011;68007;51.312;12.372;2023-06-24T12:00:21;6.67;;;3.90;;
3417;SDS011;68007;51.312;12.372;2023-06-24T12:02:50;3.97;;;3.57;;
3417;SDS011;68007;51.312;12.372;2023-06-24T12:05:25;7.07;;;4.10;;
3417;SDS011;68007;51.312;12.372;2023-06-24T12:07:55;4.10;;;3.30;;
3417;SDS011;68007;51.312;12.372;2023-06-24T12:10:28;7.93;;;6.37;;
3417;SDS011;68007;51.312;12.372;2023-06-24T12:12:58;6.77;;;3.60;;
3417;SDS011;68007;51.312;12.372;2023-06-24T12:15:26;4.40;;;3.73;;
3417;SDS011;68007;51.312;12.372;2023-06-24T12:17:54;7.20;;;4.00;;
3417;SDS011;68007;51.312;12.372;2023-06-24T12:20:23;4.73;;;3.90;;
3417;SDS011;68007;51.312;12.372;2023-06-24T12:22:51;6.30;;;4.10;;
3417;SDS011;68007;51.312;12.372;2023-06-24T12:25:19;6.10;;;3.93;;
3417;SDS011;68007;51.312;12.372;2023-06-24T12:27:48;4.23;;;3.63;;
3417;SDS011;68007;51.312;12.372;2023-06-24T12:30:16;8.17;;;4.30;;
3417;SDS011;68007;51.312;12.372;2023-06-24T12:32:43;5.73;;;3.60;;
3417;SDS011;68007;51.312;12.372;2023-06-24T12:35:11;4.60;;;4.00;;
3417;SDS011;68007;51.312;12.372;2023-06-24T12:37:39;6.00;;;4.23;;
3417;SDS011;68007;51.312;12.372;2023-06-24T12:40:07;3.70;;;3.20;;
3417;SDS011;68007;51.312;12.372;2023-06-24T12:42:35;4.20;;;3.80;;
3417;SDS011;68007;51.312;12.372;2023-06-24T12:45:04;5.33;;;3.50;;
3417;SDS011;68007;51.312;12.372;2023-06-24T12:47:32;4.07;;;3.77;;
3417;SDS011;68007;51.312;12.372;2023-06-24T12:50:00;7.40;;;3.90;;
3417;SDS011;68007;51.312;12.372;2023-06-24T12:52:32;5.80;;;4.37;;
3417;SDS011;68007;51.312;12.372;2023-06-24T12:55:00;6.30;;;4.40;;
3417;SDS011;68007;51.312;12.372;2023-06-24T12:57:29;6.50;;;3.80;;
3417;SDS011;68007;51.312;12.372;2023-06-24T12:59:56;4.07;;;3.60;;
3417;SDS011;68007;51.312;12.372;2023-06-24T13:02:25;5.20;;;3.13;;
3417;SDS011;68007;51.312;12.372;2023-06-24T13:04:53;5.33;;;3.63;;
3417;SDS011;68007;51.312;12.372;2023-06-24T13:07:20;5.40;;;3.80;;
3417;SDS011;68007;51.312;12.372;2023-06-24T13:09:48;5.70;;;3.60;;
3417;SDS011;68007;51.312;12.372;2023-06-24T13:12:15;4.30;;;3.10;;
3417;SDS011;68007;51.312;12.372;2023-06-24T13:14:43;7.10;;;4.20;;
3417;SDS011;68007;51.312;12.372;2023-06-24T13:17:10;16.73;;;4.20;;
3417;SDS011;68007;51.312;12.372;2023-06-24T13:19:39;4.03;;;3.30;;
3417;SDS011;68007;51.312;12.372;2023-06-24T13:22:07;4.93;;;3.70;;
3417;SDS011;68007;51.312;12.372;2023-06-24T13:24:34;6.50;;;4.00;;
3417;SDS011;68007;51.312;12.372;2023-06-24T13:27:01;5.80;;;4.20;;
3417;SDS011;68007;51.312;12.372;2023-06-24T13:29:29;4.80;;;3.70;;
3417;SDS011;68007;51.312;12.372;2023-06-24T13:31:57;8.50;;;3.33;;
3417;SDS011;68007;51.312;12.372;2023-06-24T13:34:24;4.43;;;4.03;;
3417;SDS011;68007;51.312;12.372;2023-06-24T13:36:53;8.73;;;3.60;;
3417;SDS011;68007;51.312;12.372;2023-06-24T13:39:21;6.17;;;4.10;;
3417;SDS011;68007;51.312;12.372;2023-06-24T13:41:49;4.70;;;3.37;;
3417;SDS011;68007;51.312;12.372;2023-06-24T13:44:18;4.03;;;3.63;;
3417;SDS011;68007;51.312;12.372;2023-06-24T13:46:46;3.47;;;3.17;;
3417;SDS011;68007;51.312;12.372;2023-06-24T13:49:13;3.97;;;3.50;;
3417;SDS011;68007;51.312;12.372;2023-06-24T13:51:41;3.70;;;3.40;;
3417;SDS011;68007;51.312;12.372;2023-06-24T13:54:10;4.63;;;3.27;;
3417;SDS011;68007;51.312;12.372;2023-06-24T13:56:37;8.93;;;3.80;;
3417;SDS011;68007;51.312;12.372;2023-06-24T13:59:05;3.40;;;3.10;;
3417;SDS011;68007;51.312;12.372;2023-06-24T14:01:32;4.73;;;3.50;;
3417;SDS011;68007;51.312;12.372;2023-06-24T14:04:01;3.67;;;3.37;;
3417;SDS011;68007;51.312;12.372;2023-06-24T14:06:29;4.40;;;3.37;;
3417;SDS011;68007;51.312;12.372;2023-06-24T14:08:57;4.13;;;3.27;;
3417;SDS011;68007;51.312;12.372;2023-06-24T14:11:25;3.80;;;3.30;;
3417;SDS011;68007;51.312;12.372;2023-06-24T14:13:53;4.63;;;3.77;;
3417;SDS011;68007;51.312;12.372;2023-06-24T14:16:20;8.20;;;3.60;;
3417;SDS011;68007;51.312;12.372;2023-06-24T14:18:48;5.37;;;3.70;;
3417;SDS011;68007;51.312;12.372;2023-06-24T14:21:15;8.80;;;3.73;;
3417;SDS011;68007;51.312;12.372;2023-06-24T14:23:43;4.17;;;3.10;;
3417;SDS011;68007;51.312;12.372;2023-06-24T14:26:10;5.40;;;3.30;;
3417;SDS011;68007;51.312;12.372;2023-06-24T14:28:39;5.70;;;3.37;;
3417;SDS011;68007;51.312;12.372;2023-06-24T14:31:07;4.00;;;2.90;;
3417;SDS011;68007;51.312;12.372;2023-06-24T14:33:34;6.00;;;3.40;;
3417;SDS011;68007;51.312;12.372;2023-06-24T14:36:02;3.60;;;3.30;;
3417;SDS011;68007;51.312;12.372;2023-06-24T14:38:30;8.93;;;3.80;;
3417;SDS011;68007;51.312;12.372;2023-06-24T14:40:57;3.43;;;3.13;;
3417;SDS011;68007;51.312;12.372;2023-06-24T14:43:25;3.97;;;3.00;;
3417;SDS011;68007;51.312;12.372;2023-06-24T14:45:54;3.60;;;3.30;;
3417;SDS011;68007;51.312;12.372;2023-06-24T14:48:23;3.50;;;3.20;;
3417;SDS011;68007;51.312;12.372;2023-06-24T14:50:51;6.50;;;3.10;;